Time;durP1;ratioP1;P1;durP2;ratioP2;P2;SDS_P1;SDS_P2;PMS_P1;PMS_P2;Temp;Humidity;BMP_temperature;BMP_pressure;BME280_temperature;BME280_humidity;BME280_pressure;Samples;Min_cycle;Max_cycle;Signal;HPM_P1;HPM_P2
2023/03/12 00:01:56;;;;;;;6.30;4.65;;;;;;;6.00;100.00;97802.80;1684155;85;21063;-58
2023/03/12 00:04:29;;;;;;;6.70;4.50;;;;;;;6.00;100.00;97806.05;1684403;85;21047;-58
2023/03/12 00:06:57;;;;;;;7.15;4.30;;;;;;;5.95;100.00;97813.53;1684235;85;21163;-58
2023/03/12 00:09:28;;;;;;;7.95;5.35;;;;;;;5.92;100.00;97813.17;1684041;85;21004;-59
2023/03/12 00:11:59;;;;;;;6.35;4.50;;;;;;;5.90;100.00;97809.85;1684263;85;21582;-59
2023/03/12 00:14:29;;;;;;;9.08;4.50;;;;;;;5.90;100.00;97812.57;1684371;85;21071;-59
2023/03/12 00:16:59;;;;;;;5.90;4.80;;;;;;;5.87;100.00;97815.19;1684959;85;21031;-60
2023/03/12 00:19:28;;;;;;;7.08;5.08;;;;;;;5.84;100.00;97808.00;1686601;85;21483;-59
2023/03/12 00:21:58;;;;;;;7.10;5.20;;;;;;;5.82;100.00;97800.08;1687895;85;21056;-58
2023/03/12 00:24:27;;;;;;;5.92;4.30;;;;;;;5.81;100.00;97796.23;1687053;85;21032;-59
2023/03/12 00:26:56;;;;;;;7.45;4.65;;;;;;;5.78;100.00;97796.16;1720784;82;21047;-58
2023/03/12 00:29:25;;;;;;;6.53;5.00;;;;;;;5.76;100.00;97795.57;1738643;82;21438;-58
2023/03/12 00:31:54;;;;;;;7.30;5.10;;;;;;;5.72;100.00;97805.23;1738574;82;21079;-58
2023/03/12 00:34:23;;;;;;;7.42;4.62;;;;;;;5.68;100.00;97819.81;1736354;82;21067;-59
2023/03/12 00:36:52;;;;;;;7.78;4.50;;;;;;;5.65;100.00;97814.01;1734706;83;21076;-59
2023/03/12 00:39:22;;;;;;;7.53;5.25;;;;;;;5.62;100.00;97813.11;1734658;82;21052;-59
2023/03/12 00:41:52;;;;;;;8.08;5.40;;;;;;;5.59;100.00;97823.07;1732321;83;21079;-60
2023/03/12 00:44:22;;;;;;;7.22;4.75;;;;;;;5.55;100.00;97815.91;1659937;86;21071;-58
2023/03/12 00:46:52;;;;;;;7.30;4.97;;;;;;;5.53;100.00;97822.10;1687818;84;21056;-59
2023/03/12 00:49:22;;;;;;;6.47;4.85;;;;;;;5.51;100.00;97813.36;1734458;83;21480;-59
2023/03/12 00:51:52;;;;;;;6.67;4.90;;;;;;;5.49;100.00;97816.83;1734477;83;21067;-60
2023/03/12 00:54:22;;;;;;;6.15;4.70;;;;;;;5.46;100.00;97819.17;1732140;83;21451;-59
2023/03/12 00:56:52;;;;;;;7.00;4.20;;;;;;;5.44;100.00;97826.19;1659970;86;21513;-59
2023/03/12 00:59:22;;;;;;;6.72;4.70;;;;;;;5.39;100.00;97826.88;1687672;85;21548;-59
2023/03/12 01:01:51;;;;;;;7.60;4.67;;;;;;;5.38;100.00;97831.17;1734417;83;21506;-60
2023/03/12 01:04:22;;;;;;;7.87;4.50;;;;;;;5.36;100.00;97834.64;1732181;82;21028;-58
2023/03/12 01:06:52;;;;;;;5.50;4.33;;;;;;;5.34;100.00;97830.80;1659899;86;21111;-57
2023/03/12 01:09:22;;;;;;;5.83;4.12;;;;;;;5.35;100.00;97828.91;1708088;83;21079;-58
2023/03/12 01:11:53;;;;;;;5.12;3.45;;;;;;;5.34;100.00;97831.33;1734725;83;21135;-58
2023/03/12 01:14:23;;;;;;;4.87;3.52;;;;;;;5.30;100.00;97825.52;1732107;83;21020;-57
2023/03/12 01:16:52;;;;;;;4.03;2.65;;;;;;;5.28;100.00;97833.06;1731974;83;21538;-59
2023/03/12 01:19:22;;;;;;;2.62;2.00;;;;;;;5.26;100.00;97822.95;1659914;86;21118;-58
2023/03/12 01:21:53;;;;;;;1.82;1.50;;;;;;;5.23;100.00;97825.30;1734361;83;21573;-58
2023/03/12 01:24:22;;;;;;;2.80;1.60;;;;;;;5.21;100.00;97828.23;1732352;82;21522;-60
2023/03/12 01:26:52;;;;;;;1.47;1.10;;;;;;;5.19;99.88;97857.46;1690897;85;21506;-58
2023/03/12 01:29:21;;;;;;;1.27;1.12;;;;;;;5.13;98.64;97850.22;1687584;85;21068;-58
2023/03/12 01:31:50;;;;;;;1.82;1.15;;;;;;;5.00;97.79;97843.58;1734538;83;21095;-58
2023/03/12 01:34:20;;;;;;;1.40;1.00;;;;;;;4.92;97.95;97845.23;1736678;82;21079;-59
2023/03/12 01:36:49;;;;;;;1.47;1.10;;;;;;;4.86;97.69;97855.62;1738366;82;21080;-59
2023/03/12 01:39:18;;;;;;;1.10;0.90;;;;;;;4.78;97.61;97861.63;1738415;82;21019;-61
2023/03/12 01:41:47;;;;;;;1.12;0.50;;;;;;;4.73;97.05;97871.49;1738481;82;21467;-58
2023/03/12 01:44:18;;;;;;;0.80;0.60;;;;;;;4.61;96.66;97874.09;1738429;82;21537;-59
2023/03/12 01:46:47;;;;;;;0.98;0.80;;;;;;;4.51;96.41;97891.36;1738459;82;21024;-59
2023/03/12 01:49:28;;;;;;;0.62;0.60;;;;;;;4.41;96.39;97904.57;1737494;82;21052;-59
2023/03/12 01:52:13;;;;;;;0.90;0.80;;;;;;;4.32;96.39;97899.94;1738858;82;21102;-57
2023/03/12 01:55:11;;;;;;;0.55;0.40;;;;;;;4.22;96.48;97912.31;1738551;82;21020;-59
2023/03/12 01:57:48;;;;;;;0.55;0.50;;;;;;;4.11;96.46;97926.03;1738501;82;21511;-57
2023/03/12 02:00:23;;;;;;;0.80;0.42;;;;;;;4.01;96.07;97927.86;1738596;82;21444;-58
2023/03/12 02:03:00;;;;;;;0.93;0.60;;;;;;;3.88;95.84;97937.38;1738715;82;21052;-57
2023/03/12 02:05:47;;;;;;;0.53;0.40;;;;;;;3.81;95.98;97944.69;1738317;82;21048;-59
2023/03/12 02:08:16;;;;;;;0.60;0.50;;;;;;;3.76;95.83;97940.44;1738468;82;21019;-57
2023/03/12 02:10:47;;;;;;;0.72;0.40;;;;;;;3.67;95.82;97950.69;1738412;82;21072;-58
2023/03/12 02:13:19;;;;;;;0.40;0.40;;;;;;;3.59;95.68;97956.34;1738662;82;21079;-58
2023/03/12 02:15:50;;;;;;;0.60;0.50;;;;;;;3.53;95.39;97973.95;1738528;82;21114;-57
2023/03/12 02:18:21;;;;;;;0.55;0.45;;;;;;;3.48;95.64;97986.77;1738947;82;21047;-57
2023/03/12 02:21:24;;;;;;;2.02;0.78;;;;;;;3.46;95.95;97992.39;1738647;82;21059;-59
2023/03/12 02:24:10;;;;;;;0.55;0.55;;;;;;;3.43;95.99;98000.93;1738510;82;21561;-57
2023/03/12 02:26:40;;;;;;;0.88;0.70;;;;;;;3.39;96.01;98007.81;1738392;82;21080;-57
2023/03/12 02:29:12;;;;;;;0.57;0.55;;;;;;;3.36;96.15;98023.12;1738655;82;21024;-57
2023/03/12 02:31:50;;;;;;;0.65;0.40;;;;;;;3.30;95.80;98024.48;1738344;82;21000;-58
2023/03/12 02:34:19;;;;;;;1.60;0.80;;;;;;;3.17;95.36;98011.76;1737444;82;21040;-58
2023/03/12 02:36:49;;;;;;;2.92;1.82;;;;;;;3.06;95.74;98016.45;1734479;83;21100;-58
2023/03/12 02:39:18;;;;;;;2.72;1.50;;;;;;;2.97;96.16;98017.17;1734598;82;21040;-58
2023/03/12 02:41:53;;;;;;;1.32;0.80;;;;;;;2.88;96.31;98027.05;1734398;82;21040;-57
2023/03/12 02:44:26;;;;;;;0.42;0.40;;;;;;;2.83;96.63;98032.56;1734584;82;21040;-58
2023/03/12 02:46:58;;;;;;;0.70;0.50;;;;;;;2.81;96.77;98041.39;1734787;83;21416;-59
2023/03/12 02:49:31;;;;;;;0.72;0.42;;;;;;;2.74;96.96;98051.38;1734554;82;21016;-58
2023/03/12 02:52:01;;;;;;;0.98;0.65;;;;;;;2.68;97.09;98064.36;1734638;82;21059;-59
2023/03/12 02:54:30;;;;;;;1.30;1.00;;;;;;;2.62;97.03;98053.02;1734520;83;21063;-57
2023/03/12 02:57:00;;;;;;;2.20;1.40;;;;;;;2.57;97.05;98061.39;1734565;83;21024;-58
2023/03/12 02:59:30;;;;;;;2.05;1.20;;;;;;;2.54;97.23;98058.58;1734656;83;21008;-58
2023/03/12 03:02:00;;;;;;;2.10;1.12;;;;;;;2.51;97.33;98063.87;1734533;83;21024;-57
2023/03/12 03:04:33;;;;;;;1.32;0.93;;;;;;;2.52;97.43;98063.35;1734905;82;21563;-58
2023/03/12 03:07:03;;;;;;;2.33;1.10;;;;;;;2.49;97.11;98075.92;1734535;83;21071;-58
2023/03/12 03:09:33;;;;;;;2.30;1.32;;;;;;;2.50;97.20;98085.69;1732360;83;21539;-58
2023/03/12 03:12:03;;;;;;;1.80;1.22;;;;;;;2.47;96.91;98095.55;1642652;86;21091;-57
2023/03/12 03:14:33;;;;;;;2.05;1.70;;;;;;;2.38;96.60;98100.30;1687569;85;21028;-58
2023/03/12 03:17:04;;;;;;;2.47;1.12;;;;;;;2.31;96.65;98115.66;1734607;83;21071;-58
2023/03/12 03:19:34;;;;;;;2.22;1.20;;;;;;;2.27;96.71;98105.45;1734647;83;21004;-58
2023/03/12 03:22:06;;;;;;;3.70;1.32;;;;;;;2.25;96.80;98108.88;1734455;82;21457;-57
2023/03/12 03:24:36;;;;;;;2.27;1.35;;;;;;;2.22;96.71;98112.30;1734442;82;21467;-59
2023/03/12 03:27:06;;;;;;;2.70;1.50;;;;;;;2.19;96.65;98107.29;1734359;82;21012;-57
2023/03/12 03:29:36;;;;;;;2.65;1.50;;;;;;;2.20;96.61;98108.13;1732115;82;21106;-58
2023/03/12 03:32:07;;;;;;;2.47;1.52;;;;;;;2.17;96.08;98113.41;1660074;86;21032;-57
2023/03/12 03:34:36;;;;;;;3.50;1.87;;;;;;;2.12;96.10;98123.98;1691310;84;21523;-57
2023/03/12 03:37:06;;;;;;;2.35;1.52;;;;;;;2.07;95.72;98126.97;1662974;85;21533;-58
2023/03/12 03:39:36;;;;;;;1.92;1.40;;;;;;;2.02;95.84;98137.02;1738433;82;21113;-57
2023/03/12 03:42:06;;;;;;;1.80;1.20;;;;;;;1.94;95.81;98138.49;1738492;82;21440;-58
2023/03/12 03:44:37;;;;;;;2.30;1.42;;;;;;;1.87;95.95;98138.45;1738518;82;21024;-57
2023/03/12 03:47:08;;;;;;;2.58;1.42;;;;;;;1.83;96.21;98148.49;1738377;82;21000;-56
2023/03/12 03:49:38;;;;;;;2.37;1.40;;;;;;;1.81;96.41;98151.91;1738489;82;21989;-56
2023/03/12 03:52:08;;;;;;;2.92;1.50;;;;;;;1.78;96.52;98159.05;1738468;82;21055;-58
2023/03/12 03:54:39;;;;;;;3.10;1.40;;;;;;;1.68;96.40;98155.34;1738542;82;21095;-58
2023/03/12 03:57:10;;;;;;;2.02;1.40;;;;;;;1.56;96.38;98153.70;1738444;82;21051;-59
2023/03/12 03:59:44;;;;;;;2.62;1.90;;;;;;;1.51;96.48;98158.02;1738962;82;21024;-57
2023/03/12 04:02:18;;;;;;;2.10;1.50;;;;;;;1.46;95.81;98169.39;1739886;82;21041;-58
2023/03/12 04:04:48;;;;;;;2.62;1.50;;;;;;;1.36;95.73;98172.93;1741244;82;21468;-62
2023/03/12 04:07:16;;;;;;;2.58;1.55;;;;;;;1.35;95.83;98175.30;1742360;82;21059;-57
2023/03/12 04:09:45;;;;;;;2.60;1.62;;;;;;;1.39;96.00;98190.59;1740948;82;21435;-58
2023/03/12 04:12:16;;;;;;;2.35;1.50;;;;;;;1.40;95.78;98192.26;1738692;82;21040;-57
2023/03/12 04:14:45;;;;;;;2.27;1.45;;;;;;;1.38;95.59;98203.25;1738481;82;21444;-57
2023/03/12 04:17:15;;;;;;;2.60;1.60;;;;;;;1.31;95.17;98209.61;1738558;82;21012;-58
2023/03/12 04:19:44;;;;;;;2.62;1.52;;;;;;;1.25;95.39;98224.66;1738488;82;21064;-58
2023/03/12 04:22:15;;;;;;;2.52;1.80;;;;;;;1.23;95.52;98219.97;1738384;82;21079;-58
2023/03/12 04:24:45;;;;;;;3.92;1.90;;;;;;;1.18;95.63;98237.24;1738493;82;21027;-58
2023/03/12 04:27:15;;;;;;;4.55;1.85;;;;;;;1.10;95.50;98230.63;1738482;82;21083;-58
2023/03/12 04:29:47;;;;;;;3.65;1.80;;;;;;;0.98;95.58;98242.92;1738495;82;21047;-57
2023/03/12 04:32:16;;;;;;;6.33;2.50;;;;;;;0.91;95.86;98253.12;1738327;82;21098;-58
2023/03/12 04:34:45;;;;;;;4.35;2.22;;;;;;;0.83;96.25;98263.17;1737751;82;21004;-58
2023/03/12 04:37:15;;;;;;;5.65;2.40;;;;;;;0.78;96.90;98261.55;1707040;83;21103;-59
2023/03/12 04:39:46;;;;;;;3.58;2.33;;;;;;;0.75;97.30;98274.89;1732134;83;21099;-56
2023/03/12 04:42:16;;;;;;;3.15;2.22;;;;;;;0.71;97.39;98270.91;1732067;83;21547;-57
2023/03/12 04:44:45;;;;;;;4.03;2.20;;;;;;;0.66;97.54;98271.98;1732345;82;21060;-56
2023/03/12 04:47:15;;;;;;;4.37;2.40;;;;;;;0.63;97.53;98281.75;1732200;82;21047;-56
2023/03/12 04:49:45;;;;;;;4.30;2.20;;;;;;;0.60;97.57;98291.55;1707164;83;21032;-58
2023/03/12 04:52:16;;;;;;;7.28;2.70;;;;;;;0.52;97.31;98280.36;1690673;83;21050;-57
2023/03/12 04:54:45;;;;;;;4.53;2.47;;;;;;;0.50;97.42;98306.64;1669897;85;21075;-57
2023/03/12 04:57:16;;;;;;;4.03;2.30;;;;;;;0.43;97.17;98294.10;1734508;83;21102;-58
2023/03/12 04:59:45;;;;;;;4.35;2.70;;;;;;;0.39;97.44;98296.84;1734528;82;21052;-57
2023/03/12 05:02:17;;;;;;;4.25;2.80;;;;;;;0.37;97.62;98296.19;1734774;83;21032;-57
2023/03/12 05:04:46;;;;;;;4.17;2.75;;;;;;;0.37;97.78;98297.03;1734462;83;21020;-56
2023/03/12 05:07:15;;;;;;;4.72;2.33;;;;;;;0.41;97.83;98304.23;1734434;83;21091;-57
2023/03/12 05:09:45;;;;;;;4.00;2.58;;;;;;;0.38;97.86;98311.33;1734635;83;21032;-56
2023/03/12 05:12:16;;;;;;;6.65;2.50;;;;;;;0.37;97.78;98327.16;1732080;82;21008;-57
2023/03/12 05:14:47;;;;;;;4.03;2.60;;;;;;;0.35;97.80;98324.66;1664781;85;21007;-57
2023/03/12 05:17:17;;;;;;;4.67;2.37;;;;;;;0.35;97.75;98339.98;1663859;85;21103;-57
2023/03/12 05:19:47;;;;;;;4.30;2.60;;;;;;;0.33;97.62;98348.75;1689362;85;21044;-58
2023/03/12 05:22:17;;;;;;;4.53;2.50;;;;;;;0.33;97.67;98354.97;1659790;86;21012;-57
2023/03/12 05:24:47;;;;;;;5.47;2.75;;;;;;;0.33;97.49;98374.34;1734483;83;21083;-56
2023/03/12 05:27:17;;;;;;;7.28;2.33;;;;;;;0.33;97.46;98394.53;1732124;83;21021;-57
2023/03/12 05:29:48;;;;;;;3.60;2.35;;;;;;;0.30;97.12;98388.49;1732090;83;21044;-57
2023/03/12 05:32:19;;;;;;;4.85;2.33;;;;;;;0.29;97.10;98398.10;1707395;83;21474;-57
2023/03/12 05:34:51;;;;;;;3.58;2.30;;;;;;;0.27;96.98;98413.09;1732424;82;21494;-57
2023/03/12 05:37:21;;;;;;;4.12;2.42;;;;;;;0.27;96.73;98432.45;1731987;83;21060;-59
2023/03/12 05:39:50;;;;;;;4.00;2.50;;;;;;;0.25;96.65;98438.53;1732209;83;21080;-57
2023/03/12 05:42:19;;;;;;;3.92;2.22;;;;;;;0.19;96.48;98438.73;1707340;83;21036;-59
2023/03/12 05:44:51;;;;;;;6.25;3.10;;;;;;;0.17;96.67;98434.55;1732283;82;21052;-58
2023/03/12 05:47:22;;;;;;;4.90;2.58;;;;;;;0.17;96.89;98447.51;1732206;82;21457;-57
2023/03/12 05:49:52;;;;;;;6.15;2.98;;;;;;;0.18;97.03;98443.80;1732047;83;21464;-57
2023/03/12 05:52:24;;;;;;;6.10;2.80;;;;;;;0.17;96.96;98441.28;1659747;86;21031;-57
2023/03/12 05:54:54;;;;;;;4.22;2.40;;;;;;;0.15;97.06;98456.27;1734433;83;21080;-58
2023/03/12 05:57:23;;;;;;;5.70;2.60;;;;;;;0.14;96.91;98465.37;1734417;83;20996;-58
2023/03/12 05:59:52;;;;;;;8.55;3.95;;;;;;;0.15;97.10;98472.42;1734459;83;21064;-59
2023/03/12 06:02:22;;;;;;;8.90;4.30;;;;;;;0.16;97.15;98490.77;1732106;83;21052;-58
2023/03/12 06:04:52;;;;;;;9.28;4.37;;;;;;;0.13;96.88;98491.96;1659872;85;21543;-58
2023/03/12 06:07:23;;;;;;;8.55;3.75;;;;;;;0.11;96.86;98495.84;1734283;82;21048;-58
2023/03/12 06:09:54;;;;;;;15.90;6.80;;;;;;;0.11;96.83;98491.81;1732194;82;21048;-58
2023/03/12 06:12:25;;;;;;;17.62;6.67;;;;;;;0.11;96.81;98518.73;1659841;86;21083;-59
2023/03/12 06:14:54;;;;;;;15.35;5.62;;;;;;;0.06;96.38;98513.88;1687444;83;21506;-59
2023/03/12 06:17:22;;;;;;;10.25;4.75;;;;;;;0.02;96.74;98522.48;1734291;83;21020;-58
2023/03/12 06:19:52;;;;;;;13.13;5.28;;;;;;;0.02;96.86;98533.26;1732173;82;21051;-58
2023/03/12 06:22:22;;;;;;;8.23;4.50;;;;;;;0.06;96.89;98552.08;1732178;83;21084;-58
2023/03/12 06:24:51;;;;;;;6.40;3.77;;;;;;;0.06;96.94;98549.39;1732085;83;21447;-60
2023/03/12 06:27:21;;;;;;;5.03;3.22;;;;;;;0.06;96.89;98559.65;1659784;85;21510;-58
2023/03/12 06:29:51;;;;;;;4.87;2.83;;;;;;;0.03;96.53;98565.38;1687700;85;21498;-59
2023/03/12 06:32:21;;;;;;;5.03;2.67;;;;;;;0.04;96.64;98587.25;1734420;83;21079;-58
2023/03/12 06:34:51;;;;;;;5.30;2.25;;;;;;;0.08;96.79;98591.27;1732358;83;21495;-59
2023/03/12 06:37:21;;;;;;;5.62;2.50;;;;;;;0.09;96.66;98596.98;1702748;83;21044;-59
2023/03/12 06:39:51;;;;;;;5.87;2.40;;;;;;;0.08;96.68;98602.04;1692914;85;21040;-59
2023/03/12 06:42:21;;;;;;;4.33;2.30;;;;;;;0.10;96.77;98601.36;1738591;82;21553;-58
2023/03/12 06:44:51;;;;;;;6.67;2.62;;;;;;;0.10;96.81;98609.44;1738452;82;21075;-58
2023/03/12 06:47:21;;;;;;;3.83;2.42;;;;;;;0.07;96.69;98626.45;1738460;82;21059;-59
2023/03/12 06:49:50;;;;;;;4.97;2.37;;;;;;;0.03;97.40;98627.30;1738460;82;21517;-57
2023/03/12 06:52:21;;;;;;;5.62;2.60;;;;;;;0.02;97.53;98633.70;1738576;82;21075;-60
2023/03/12 06:54:50;;;;;;;5.80;2.25;;;;;;;-0.01;97.74;98639.40;1738498;82;21557;-58
2023/03/12 06:57:20;;;;;;;6.15;2.15;;;;;;;0.03;97.91;98654.73;1738437;82;21032;-59
2023/03/12 06:59:51;;;;;;;7.22;2.35;;;;;;;0.06;98.04;98656.56;1738551;82;21063;-58
2023/03/12 07:02:20;;;;;;;5.22;2.30;;;;;;;0.07;97.91;98647.48;1738770;82;21492;-58
2023/03/12 07:04:49;;;;;;;3.98;1.98;;;;;;;0.06;97.89;98661.95;1739012;82;21099;-58
2023/03/12 07:07:20;;;;;;;3.92;2.20;;;;;;;0.05;99.04;98671.05;1739169;82;21087;-59
2023/03/12 07:09:53;;;;;;;3.62;2.05;;;;;;;0.03;99.60;98682.49;1739312;82;21135;-57
2023/03/12 07:12:22;;;;;;;5.95;1.90;;;;;;;-0.04;99.42;98686.34;1739393;82;21068;-60
2023/03/12 07:14:51;;;;;;;11.22;2.85;;;;;;;-0.07;99.31;98704.69;1739287;82;21048;-59
2023/03/12 07:17:23;;;;;;;6.43;2.40;;;;;;;-0.13;100.00;98710.77;1738499;82;21525;-59
2023/03/12 07:19:53;;;;;;;6.67;2.40;;;;;;;-0.11;100.00;98715.47;1738363;82;21052;-58
2023/03/12 07:22:22;;;;;;;4.83;2.20;;;;;;;-0.14;100.00;98720.69;1738378;82;21087;-59
2023/03/12 07:24:52;;;;;;;5.83;2.17;;;;;;;-0.14;100.00;98725.23;1738526;82;21012;-58
2023/03/12 07:27:21;;;;;;;4.75;2.12;;;;;;;-0.13;100.00;98732.30;1738371;82;21024;-58
2023/03/12 07:29:51;;;;;;;7.28;2.85;;;;;;;-0.07;100.00;98745.06;1738494;82;21059;-58
2023/03/12 07:32:21;;;;;;;3.25;1.80;;;;;;;-0.04;100.00;98752.80;1738704;82;21068;-57
2023/03/12 07:34:51;;;;;;;3.00;1.60;;;;;;;-0.02;100.00;98750.78;1738356;82;21112;-58
2023/03/12 07:37:24;;;;;;;4.03;2.00;;;;;;;-0.04;100.00;98768.95;1738216;82;21056;-59
2023/03/12 07:39:55;;;;;;;9.25;3.17;;;;;;;-0.03;100.00;98762.56;1738522;82;21016;-58
2023/03/12 07:42:25;;;;;;;10.85;4.22;;;;;;;-0.03;100.00;98771.98;1738509;82;21500;-58
2023/03/12 07:44:57;;;;;;;10.25;4.35;;;;;;;0.03;100.00;98777.22;1718183;82;21032;-59
2023/03/12 07:47:27;;;;;;;12.23;4.85;;;;;;;0.06;100.00;98797.08;1657660;86;21055;-58
2023/03/12 07:49:59;;;;;;;8.93;3.30;;;;;;;0.07;100.00;98797.41;1658744;86;21147;-58
2023/03/12 07:52:29;;;;;;;7.35;3.15;;;;;;;0.07;99.65;98798.25;1657303;86;21072;-59
2023/03/12 07:54:59;;;;;;;4.90;1.90;;;;;;;0.03;99.37;98818.45;1656936;86;21024;-59
2023/03/12 07:57:30;;;;;;;5.47;2.30;;;;;;;-0.01;98.92;98809.00;1656598;86;21109;-59
2023/03/12 08:00:00;;;;;;;6.33;2.20;;;;;;;-0.02;98.82;98821.61;1656824;86;21051;-59
2023/03/12 08:02:33;;;;;;;5.17;2.20;;;;;;;0.02;98.51;98819.96;1655390;86;21068;-58
2023/03/12 08:05:02;;;;;;;3.75;1.90;;;;;;;0.05;97.41;98827.19;1678735;82;21087;-58
2023/03/12 08:07:34;;;;;;;5.50;2.70;;;;;;;0.08;96.83;98844.36;1738423;82;21115;-59
2023/03/12 08:10:06;;;;;;;6.72;2.65;;;;;;;0.14;96.93;98849.56;1738488;82;21099;-59
2023/03/12 08:12:38;;;;;;;6.42;1.87;;;;;;;0.24;96.44;98863.70;1738396;82;21051;-58
2023/03/12 08:15:08;;;;;;;5.83;2.27;;;;;;;0.29;95.04;98855.44;1738342;82;21028;-57
2023/03/12 08:17:39;;;;;;;2.25;1.35;;;;;;;0.36;94.08;98862.84;1738273;82;21493;-57
2023/03/12 08:20:10;;;;;;;3.02;1.70;;;;;;;0.45;93.49;98865.86;1738496;82;21055;-58
2023/03/12 08:22:40;;;;;;;4.30;1.50;;;;;;;0.49;92.20;98885.55;1738315;82;21047;-58
2023/03/12 08:25:09;;;;;;;2.65;1.60;;;;;;;0.53;89.25;98872.58;1738612;82;21059;-60
2023/03/12 08:27:40;;;;;;;3.60;1.40;;;;;;;0.53;88.75;98885.55;1738397;82;21099;-63
2023/03/12 08:30:12;;;;;;;3.20;2.02;;;;;;;0.59;88.66;98892.11;1738439;82;21087;-60
2023/03/12 08:32:42;;;;;;;5.12;1.80;;;;;;;0.64;87.37;98881.66;1738574;82;21020;-58
2023/03/12 08:35:11;;;;;;;5.67;1.92;;;;;;;0.63;85.90;98876.77;1738415;82;21072;-59
2023/03/12 08:37:40;;;;;;;3.25;1.75;;;;;;;0.61;84.82;98903.55;1738304;82;21515;-59
2023/03/12 08:40:12;;;;;;;5.60;1.60;;;;;;;0.60;83.64;98912.65;1738427;82;21041;-59
2023/03/12 08:42:43;;;;;;;4.45;2.02;;;;;;;0.59;83.31;98916.36;1738436;82;21448;-58
2023/03/12 08:45:13;;;;;;;8.78;1.87;;;;;;;0.61;83.16;98904.90;1738487;82;21015;-57
2023/03/12 08:47:43;;;;;;;3.65;1.87;;;;;;;0.64;82.15;98920.73;1738332;82;21076;-58
2023/03/12 08:50:15;;;;;;;3.50;1.50;;;;;;;0.64;81.47;98928.81;1738567;82;21044;-57
2023/03/12 08:52:46;;;;;;;2.87;1.60;;;;;;;0.63;80.58;98928.48;1738463;82;21083;-58
2023/03/12 08:55:15;;;;;;;5.05;1.82;;;;;;;0.64;80.33;98931.51;1738533;82;21059;-58
2023/03/12 08:57:44;;;;;;;6.97;1.75;;;;;;;0.66;80.53;98941.64;1738326;82;21047;-59
2023/03/12 09:00:16;;;;;;;6.65;2.58;;;;;;;0.70;80.71;98951.58;1738335;82;21079;-58
2023/03/12 09:02:50;;;;;;;3.52;1.85;;;;;;;0.73;79.98;98953.42;1738394;82;21468;-60
2023/03/12 09:05:19;;;;;;;7.15;3.02;;;;;;;0.77;80.41;98949.37;1738521;82;21444;-59
2023/03/12 09:07:50;;;;;;;3.20;1.70;;;;;;;0.79;78.86;98955.44;1738362;82;21911;-58
2023/03/12 09:10:22;;;;;;;6.90;1.72;;;;;;;0.81;78.70;98960.66;1738388;82;21420;-62
2023/03/12 09:12:51;;;;;;;6.80;1.90;;;;;;;0.91;79.53;98964.85;1738458;82;21458;-60
2023/03/12 09:15:23;;;;;;;3.22;1.65;;;;;;;1.03;79.81;98974.77;1738242;82;21459;-62
2023/03/12 09:17:54;;;;;;;3.08;1.30;;;;;;;1.13;79.06;98981.32;1738504;82;21431;-64
2023/03/12 09:20:25;;;;;;;3.33;1.12;;;;;;;1.18;78.66;98983.84;1744487;80;21053;-65
2023/03/12 09:22:55;;;;;;;2.45;1.20;;;;;;;1.27;78.29;98993.59;1743958;81;21067;-62
2023/03/12 09:25:24;;;;;;;2.52;1.07;;;;;;;1.33;76.71;98998.83;1744574;80;21020;-63
2023/03/12 09:27:54;;;;;;;2.47;1.17;;;;;;;1.32;75.44;99029.53;1744298;82;21477;-63
2023/03/12 09:30:25;;;;;;;4.33;1.62;;;;;;;1.31;74.69;99018.91;1744313;82;21625;-65
2023/03/12 09:32:55;;;;;;;2.85;1.32;;;;;;;1.33;75.40;99021.77;1744367;82;21076;-65
2023/03/12 09:35:24;;;;;;;3.33;1.35;;;;;;;1.37;75.14;99029.00;1744384;82;21001;-61
2023/03/12 09:37:54;;;;;;;1.10;0.70;;;;;;;1.50;77.65;99026.61;1769167;81;21486;-61
2023/03/12 09:40:25;;;;;;;2.50;1.07;;;;;;;1.58;74.32;99040.91;1773354;81;21086;-62
2023/03/12 09:43:12;;;;;;;2.95;1.22;;;;;;;1.54;72.23;99049.53;1774871;81;21023;-62
2023/03/12 09:45:44;;;;;;;4.60;1.22;;;;;;;1.50;73.03;99026.09;1774855;81;21046;-60
2023/03/12 09:48:34;;;;;;;1.60;1.00;;;;;;;1.50;73.57;99052.25;1775029;81;21036;-60
2023/03/12 09:51:38;;;;;;;2.27;1.12;;;;;;;1.53;73.69;99060.00;1774923;81;20976;-61
2023/03/12 09:54:15;;;;;;;4.05;1.60;;;;;;;1.55;74.29;99070.95;1757709;81;21013;-61
2023/03/12 09:56:45;;;;;;;2.58;1.32;;;;;;;1.59;74.23;99074.15;1744031;82;21078;-60
2023/03/12 09:59:14;;;;;;;2.33;1.22;;;;;;;1.62;73.47;99085.95;1744218;82;21025;-59
2023/03/12 10:01:53;;;;;;;2.00;1.12;;;;;;;1.64;73.56;99089.83;1744192;82;21017;-62
2023/03/12 10:04:49;;;;;;;2.58;1.20;;;;;;;1.63;73.76;99092.19;1744140;82;21070;-61
2023/03/12 10:07:27;;;;;;;3.30;1.30;;;;;;;1.68;75.07;99099.27;1731235;82;21056;-60
2023/03/12 10:10:23;;;;;;;4.25;1.52;;;;;;;1.77;75.80;99095.52;1744378;82;21527;-62
2023/03/12 10:13:19;;;;;;;1.92;0.95;;;;;;;1.83;76.04;99114.58;1744431;82;21076;-59
2023/03/12 10:16:16;;;;;;;4.40;1.27;;;;;;;1.86;74.23;99121.48;1744346;82;21575;-60
2023/03/12 10:19:08;;;;;;;2.15;1.00;;;;;;;1.86;74.02;99124.19;1744212;82;20997;-62
2023/03/12 10:21:58;;;;;;;2.40;1.10;;;;;;;1.90;74.93;99127.72;1689782;81;21085;-61
2023/03/12 10:24:51;;;;;;;5.15;1.12;;;;;;;1.98;74.61;99141.73;1775151;80;21008;-62
2023/03/12 10:27:20;;;;;;;3.47;1.05;;;;;;;1.99;72.77;99147.98;1769598;81;21526;-61
2023/03/12 10:29:50;;;;;;;3.27;1.32;;;;;;;1.93;72.77;99150.83;1744263;81;21067;-60
2023/03/12 10:32:28;;;;;;;3.27;1.70;;;;;;;1.91;72.96;99156.41;1744234;82;21020;-61
2023/03/12 10:35:20;;;;;;;3.08;1.75;;;;;;;1.90;72.63;99149.83;1744334;82;21035;-61
2023/03/12 10:38:00;;;;;;;4.55;1.50;;;;;;;1.89;72.90;99152.20;1744343;82;21498;-61
2023/03/12 10:40:34;;;;;;;3.22;1.40;;;;;;;1.89;73.01;99161.65;1744466;82;21065;-61
2023/03/12 10:43:05;;;;;;;3.35;1.37;;;;;;;1.86;72.30;99156.59;1744519;82;21060;-60
2023/03/12 10:46:06;;;;;;;2.50;1.32;;;;;;;1.84;73.41;99145.97;1744275;82;21144;-61
2023/03/12 10:48:37;;;;;;;6.47;1.50;;;;;;;1.87;73.27;99151.53;1744365;81;21044;-61
2023/03/12 10:51:12;;;;;;;3.22;1.40;;;;;;;1.91;74.19;99142.91;1744563;82;21052;-61
2023/03/12 10:53:46;;;;;;;2.72;1.40;;;;;;;1.94;73.76;99149.81;1733575;82;21095;-61
2023/03/12 10:56:19;;;;;;;2.83;1.50;;;;;;;1.96;73.50;99157.78;1744464;82;21040;-60
2023/03/12 10:58:50;;;;;;;9.03;1.50;;;;;;;1.98;73.26;99150.34;1744288;82;21491;-59
2023/03/12 11:01:24;;;;;;;2.37;1.37;;;;;;;2.00;72.69;99159.12;1744964;80;21062;-62
2023/03/12 11:04:16;;;;;;;5.50;1.40;;;;;;;2.02;72.54;99165.19;1756927;80;21027;-60
2023/03/12 11:07:16;;;;;;;5.35;1.67;;;;;;;2.04;71.44;99170.75;1765107;81;21016;-61
2023/03/12 11:09:45;;;;;;;4.83;1.40;;;;;;;2.07;71.65;99169.56;1770724;81;21108;-61
2023/03/12 11:12:27;;;;;;;2.02;1.22;;;;;;;2.11;72.14;99177.66;1744460;82;21538;-61
2023/03/12 11:14:58;;;;;;;5.17;1.30;;;;;;;2.15;72.40;99183.05;1725552;82;21041;-62
2023/03/12 11:17:28;;;;;;;2.75;1.20;;;;;;;2.23;72.11;99167.65;1747018;82;21017;-62
2023/03/12 11:19:59;;;;;;;10.45;1.95;;;;;;;2.30;71.39;99184.52;1747447;82;21048;-62
2023/03/12 11:22:33;;;;;;;6.37;2.00;;;;;;;2.32;70.99;99186.53;1712898;82;21479;-62
2023/03/12 11:25:05;;;;;;;2.08;1.20;;;;;;;2.37;71.39;99193.09;1744849;82;21019;-62
2023/03/12 11:27:45;;;;;;;3.33;1.25;;;;;;;2.35;69.12;99194.29;1744705;82;21036;-64
2023/03/12 11:30:17;;;;;;;3.15;1.30;;;;;;;2.30;69.94;99189.41;1744432;82;21067;-62
2023/03/12 11:32:47;;;;;;;4.47;1.50;;;;;;;2.34;70.46;99185.84;1744288;82;21008;-62
2023/03/12 11:35:23;;;;;;;3.72;1.32;;;;;;;2.39;70.68;99192.92;1744548;82;21039;-63
2023/03/12 11:38:10;;;;;;;5.05;1.30;;;;;;;2.47;70.58;99196.44;1744538;82;21017;-62
2023/03/12 11:41:15;;;;;;;3.42;1.40;;;;;;;2.57;69.76;99207.03;1748140;82;21092;-62
2023/03/12 11:44:14;;;;;;;5.03;1.22;;;;;;;2.61;68.83;99212.45;1749800;82;21048;-62
2023/03/12 11:47:26;;;;;;;1.45;1.00;;;;;;;2.60;68.83;99201.78;1749852;82;21033;-61
2023/03/12 11:50:20;;;;;;;3.25;1.25;;;;;;;2.61;69.45;99205.70;1749801;82;21476;-61
2023/03/12 11:53:25;;;;;;;3.00;1.10;;;;;;;2.64;68.83;99211.27;1738133;82;21491;-61
2023/03/12 11:56:28;;;;;;;4.40;1.65;;;;;;;2.66;69.11;99203.31;1750018;82;21024;-61
2023/03/12 11:59:12;;;;;;;4.15;1.42;;;;;;;2.69;68.90;99209.72;1749738;82;21076;-61
2023/03/12 12:02:02;;;;;;;10.78;1.82;;;;;;;2.78;69.03;99211.87;1749703;82;21080;-61
2023/03/12 12:04:42;;;;;;;2.83;1.35;;;;;;;2.86;69.36;99230.25;1749637;82;21056;-61
2023/03/12 12:07:56;;;;;;;4.03;1.50;;;;;;;2.99;68.87;99239.65;1749797;82;21433;-59